createdAt,value
2023-06-22T00:03:59.729Z,25.18
2023-06-22T00:09:02.850Z,25.19
2023-06-22T00:14:06.094Z,24.94
2023-06-22T00:19:08.593Z,24.61
2023-06-22T00:24:10.746Z,24.42
2023-06-22T00:29:12.977Z,24.63
2023-06-22T00:34:15.239Z,24.33
2023-06-22T00:39:18.013Z,24.07
2023-06-22T00:44:20.217Z,24.37
2023-06-22T00:49:22.803Z,24.82
2023-06-22T00:54:26.830Z,24.92
2023-06-22T00:59:29.986Z,25.06
2023-06-22T01:04:40.173Z,24.93
2023-06-22T01:10:05.929Z,24.76
2023-06-22T01:15:22.254Z,25.00
2023-06-22T01:20:28.579Z,24.84
2023-06-22T01:25:46.056Z,24.88
2023-06-22T01:31:02.133Z,24.54
2023-06-22T01:36:07.792Z,23.72
2023-06-22T01:41:11.569Z,23.93
2023-06-22T01:46:16.500Z,24.29
2023-06-22T01:51:18.853Z,24.38
2023-06-22T01:56:21.118Z,24.66
2023-06-22T02:01:32.879Z,24.31
2023-06-22T02:06:40.376Z,24.56
2023-06-22T02:11:47.217Z,24.82
2023-06-22T02:16:52.529Z,24.94
2023-06-22T02:21:54.893Z,24.68
2023-06-22T02:26:57.232Z,24.52
2023-06-22T02:31:59.737Z,24.67
2023-06-22T02:37:03.838Z,24.64
2023-06-22T02:42:06.110Z,23.91
2023-06-22T02:47:08.613Z,24.17
2023-06-22T02:52:10.733Z,24.59
2023-06-22T02:57:15.075Z,24.65
2023-06-22T03:02:19.759Z,24.79
2023-06-22T03:07:22.214Z,24.55
2023-06-22T03:12:26.754Z,24.72
2023-06-22T03:17:30.972Z,24.30
2023-06-22T03:22:33.198Z,24.19
2023-06-22T03:27:35.314Z,24.33
2023-06-22T03:32:37.615Z,23.75
2023-06-22T03:37:41.893Z,23.84
2023-06-22T03:42:44.060Z,23.52
2023-06-22T03:47:46.297Z,24.03
2023-06-22T03:52:48.678Z,24.06
2023-06-22T03:57:50.925Z,23.83
2023-06-22T04:02:53.278Z,24.22
2023-06-22T04:07:55.799Z,24.29
2023-06-22T04:12:58.184Z,23.62
2023-06-22T04:18:00.321Z,23.67
2023-06-22T04:23:02.475Z,24.26
2023-06-22T04:28:05.481Z,24.34
2023-06-22T04:33:07.700Z,24.40
2023-06-22T04:38:10.300Z,24.62
2023-06-22T04:43:12.423Z,24.73
2023-06-22T04:48:17.446Z,24.64
2023-06-22T04:53:19.765Z,24.73
2023-06-22T04:58:22.644Z,24.88
2023-06-22T05:03:27.601Z,24.98
2023-06-22T05:08:29.934Z,24.92
2023-06-22T05:13:32.494Z,24.99
2023-06-22T05:18:36.312Z,25.09
2023-06-22T05:23:38.531Z,25.19
2023-06-22T05:28:40.619Z,25.21
2023-06-22T05:33:45.248Z,25.25
2023-06-22T05:38:47.621Z,25.25
2023-06-22T05:43:49.785Z,25.28
2023-06-22T05:48:51.908Z,25.20
2023-06-22T05:53:54.082Z,25.27
2023-06-22T05:58:56.467Z,25.27
2023-06-22T06:03:58.756Z,25.20
2023-06-22T06:09:01.110Z,25.17
2023-06-22T06:14:03.287Z,25.19
2023-06-22T06:19:05.410Z,25.25
2023-06-22T06:24:07.952Z,25.30
2023-06-22T06:29:10.189Z,25.48
2023-06-22T06:34:12.321Z,25.56
2023-06-22T06:39:14.554Z,25.57
2023-06-22T06:44:16.776Z,25.65
2023-06-22T06:49:18.888Z,25.68
2023-06-22T06:54:22.012Z,25.84
2023-06-22T06:59:24.226Z,25.96
2023-06-22T07:04:26.780Z,26.09
2023-06-22T07:09:29.316Z,26.29
2023-06-22T07:14:32.808Z,26.39
2023-06-22T07:19:35.323Z,26.41
2023-06-22T07:24:38.381Z,26.53
2023-06-22T07:29:43.580Z,26.68
2023-06-22T07:34:45.792Z,26.94
2023-06-22T07:39:48.022Z,27.26
2023-06-22T07:44:52.245Z,27.44
2023-06-22T07:49:56.118Z,27.60
2023-06-22T07:54:58.529Z,27.84
2023-06-22T08:00:17.129Z,27.82
2023-06-22T08:05:22.401Z,27.72
2023-06-22T08:10:25.872Z,27.83
2023-06-22T08:15:30.027Z,28.25
2023-06-22T08:20:32.692Z,28.64
2023-06-22T08:25:35.938Z,28.44
2023-06-22T08:30:38.355Z,28.19
2023-06-22T08:35:40.587Z,28.17
2023-06-22T08:40:43.248Z,28.38
2023-06-22T08:45:45.438Z,28.62
2023-06-22T08:50:48.053Z,29.66
2023-06-22T08:55:52.118Z,30.06
2023-06-22T09:00:54.347Z,30.60
2023-06-22T09:05:57.206Z,29.71
2023-06-22T09:10:59.423Z,29.92
2023-06-22T09:16:01.717Z,29.31
2023-06-22T09:21:04.230Z,30.06
2023-06-22T09:26:07.540Z,31.63
2023-06-22T09:31:09.894Z,31.18
2023-06-22T09:36:12.020Z,31.71
2023-06-22T09:41:14.202Z,32.31
2023-06-22T09:46:19.249Z,32.59
2023-06-22T09:51:22.971Z,32.84
2023-06-22T09:56:26.760Z,32.88
2023-06-22T10:01:30.278Z,33.12
2023-06-22T10:06:32.399Z,33.45
2023-06-22T10:11:36.304Z,32.56
2023-06-22T10:16:38.741Z,31.78
2023-06-22T10:21:41.028Z,32.48
2023-06-22T10:26:43.177Z,33.17
2023-06-22T10:31:45.350Z,33.20
2023-06-22T10:36:49.881Z,33.78
2023-06-22T10:41:52.204Z,35.10
2023-06-22T10:46:54.360Z,33.69
2023-06-22T10:51:56.834Z,33.42
2023-06-22T10:56:59.119Z,32.50
2023-06-22T11:02:01.392Z,32.33
2023-06-22T11:07:04.182Z,32.17
2023-06-22T11:12:07.539Z,32.10
2023-06-22T11:17:09.644Z,31.80
2023-06-22T11:22:12.064Z,31.55
2023-06-22T11:27:14.370Z,31.73
2023-06-22T11:32:16.686Z,31.89
2023-06-22T11:37:18.840Z,32.01
2023-06-22T11:42:21.017Z,32.58
2023-06-22T11:47:23.201Z,32.31
2023-06-22T11:52:25.643Z,32.02
2023-06-22T11:57:27.974Z,31.51
2023-06-22T12:02:30.354Z,31.63
2023-06-22T12:07:32.687Z,32.15
2023-06-22T12:12:34.836Z,32.00
2023-06-22T12:17:37.173Z,31.67
2023-06-22T12:22:39.322Z,31.82
2023-06-22T12:27:41.429Z,32.01
2023-06-22T12:32:44.284Z,31.47
2023-06-22T12:37:46.486Z,31.40
2023-06-22T12:42:48.673Z,31.40
2023-06-22T12:47:51.411Z,31.35
2023-06-22T12:52:53.902Z,31.36
2023-06-22T12:57:56.595Z,31.18
2023-06-22T13:02:59.078Z,31.39
2023-06-22T13:08:01.196Z,31.41
2023-06-22T13:13:03.437Z,31.43
2023-06-22T13:18:05.734Z,31.32
2023-06-22T13:23:08.033Z,31.30
2023-06-22T13:28:23.610Z,31.38
2023-06-22T13:33:29.914Z,31.60
2023-06-22T13:38:33.425Z,31.68
2023-06-22T13:43:35.595Z,31.45
2023-06-22T13:48:37.738Z,31.60
2023-06-22T13:53:39.912Z,31.70
2023-06-22T13:58:42.169Z,31.80
2023-06-22T14:03:46.831Z,32.11
2023-06-22T14:08:48.909Z,32.22
2023-06-22T14:13:51.171Z,33.06
2023-06-22T14:18:55.114Z,34.18
2023-06-22T14:23:59.178Z,33.72
2023-06-22T14:29:01.362Z,32.68
2023-06-22T14:34:04.831Z,32.53
2023-06-22T14:39:06.992Z,32.49
2023-06-22T14:44:09.456Z,32.82
2023-06-22T14:49:11.764Z,33.00
2023-06-22T14:54:13.951Z,33.22
2023-06-22T14:59:16.115Z,33.00
2023-06-22T15:04:18.327Z,32.42
2023-06-22T15:09:20.678Z,32.11
2023-06-22T15:14:23.011Z,32.47
2023-06-22T15:19:25.420Z,32.52
2023-06-22T15:24:27.903Z,32.42
2023-06-22T15:29:35.310Z,32.44
2023-06-22T15:34:37.655Z,32.49
2023-06-22T15:39:39.879Z,32.16
2023-06-22T15:44:42.100Z,32.21
2023-06-22T15:49:44.476Z,32.49
2023-06-22T15:54:47.454Z,32.31
2023-06-22T15:59:49.671Z,31.80
2023-06-22T16:04:51.858Z,31.85
2023-06-22T16:09:54.445Z,31.66
2023-06-22T16:14:57.125Z,31.40
2023-06-22T16:20:00.853Z,31.09
2023-06-22T16:25:03.408Z,30.92
2023-06-22T16:30:08.190Z,30.76
2023-06-22T16:35:10.668Z,30.57
2023-06-22T16:40:13.429Z,30.73
2023-06-22T16:45:19.017Z,30.60
2023-06-22T16:50:21.258Z,30.60
2023-06-22T16:55:25.793Z,30.41
2023-06-22T17:00:28.389Z,30.33
2023-06-22T17:05:32.895Z,30.22
2023-06-22T17:10:35.478Z,30.05
2023-06-22T17:15:40.275Z,29.82
2023-06-22T17:20:42.392Z,29.87
2023-06-22T17:25:47.781Z,29.77
2023-06-22T17:31:11.532Z,29.58
2023-06-22T17:36:15.159Z,29.42
2023-06-22T17:41:17.800Z,29.15
2023-06-22T17:46:20.276Z,28.92
2023-06-22T17:56:53.464Z,28.43
2023-06-22T18:01:55.695Z,28.24
2023-06-22T18:06:58.285Z,28.03
2023-06-22T18:12:04.972Z,27.88
2023-06-22T18:17:07.927Z,27.62
2023-06-22T18:22:10.188Z,27.35
2023-06-22T18:27:15.937Z,27.16
2023-06-22T18:32:18.442Z,27.19
2023-06-22T18:37:21.582Z,26.87
2023-06-22T18:42:24.062Z,26.75
2023-06-22T18:47:32.825Z,26.24
2023-06-22T18:52:40.009Z,26.18
2023-06-22T18:57:42.156Z,25.96
2023-06-22T19:02:49.992Z,26.00
2023-06-22T19:07:57.457Z,26.08
2023-06-22T19:13:31.291Z,26.07
2023-06-22T19:18:41.144Z,26.25
2023-06-22T19:23:46.131Z,26.26
2023-06-22T19:28:55.588Z,25.95
2023-06-22T19:34:07.283Z,25.63
2023-06-22T19:39:09.665Z,25.23
2023-06-22T19:44:11.952Z,25.04
2023-06-22T19:49:18.462Z,24.73
2023-06-22T19:54:20.687Z,24.57
2023-06-22T19:59:25.296Z,24.51
2023-06-22T20:04:28.123Z,24.44
2023-06-22T20:09:30.442Z,24.29
2023-06-22T20:14:36.104Z,24.24
2023-06-22T20:19:42.524Z,24.40
2023-06-22T20:24:46.738Z,24.47
2023-06-22T20:29:49.685Z,24.33
2023-06-22T20:34:51.891Z,24.10
2023-06-22T20:39:54.020Z,24.20
2023-06-22T20:44:56.532Z,24.47
2023-06-22T20:50:00.529Z,24.37
2023-06-22T20:55:02.838Z,24.58
2023-06-22T21:00:09.293Z,24.64
2023-06-22T21:05:13.464Z,24.67
2023-06-22T21:10:16.206Z,24.84
2023-06-22T21:15:18.840Z,25.37
2023-06-22T21:20:20.988Z,25.82
2023-06-22T21:25:23.199Z,24.67
2023-06-22T21:30:25.400Z,24.36
2023-06-22T21:35:28.680Z,23.81
2023-06-22T21:40:30.968Z,23.69
2023-06-22T21:45:33.318Z,23.10
2023-06-22T21:50:38.302Z,23.02
2023-06-22T21:55:40.471Z,23.15
2023-06-22T22:00:42.710Z,23.23
2023-06-22T22:05:46.748Z,23.19
2023-06-22T22:10:49.219Z,23.59
2023-06-22T22:15:52.354Z,23.26
2023-06-22T22:20:54.520Z,23.43
2023-06-22T22:25:57.216Z,23.34
2023-06-22T22:31:00.601Z,23.14
2023-06-22T22:36:06.529Z,22.99
2023-06-22T22:41:08.740Z,22.59
2023-06-22T22:46:10.925Z,22.27
2023-06-22T22:51:13.104Z,22.12
2023-06-22T22:56:16.018Z,21.89
2023-06-22T23:01:18.199Z,22.04
2023-06-22T23:06:20.407Z,21.98
2023-06-22T23:11:29.197Z,21.89
2023-06-22T23:16:31.338Z,21.94
2023-06-22T23:21:34.186Z,22.00
2023-06-22T23:26:36.287Z,22.28
2023-06-22T23:31:38.472Z,22.06
2023-06-22T23:36:40.619Z,21.80
2023-06-22T23:41:43.497Z,21.79
2023-06-22T23:46:45.622Z,21.80
2023-06-22T23:51:47.738Z,21.69
2023-06-22T23:56:53.916Z,21.63
